Stratton, Vermont
Current Conditions -  °F | °C
As of 4:54 AM on Saturday 20 Dec 2014 (Local Time) from KDDH Reporting Station
Clear Clear  
Wind Chill: 17°   Ceiling: Unl
Heat Index: 17°   Visibility: 10mi
Dew Point: 14°   Wind: 3mph
Humidity: 88%   Direction: 210°SSW
Pressure: 30.2"   Gusts: NA
Location:  43.0569°N, 72.9254°W
Report Text: KDDH 200954Z AUTO 21003KT 10SM CLR M08/M10 A3020 RMK AO2 SLP239 T10831100
Loading
Personal Weather Stations






























Interactive Weather Map New forecast layout! Learn more

10-Day Weather Forecast

Advertisements
Track Severe Weather on mobile